Aspen, CO

3:58 PM MDT on October 22, 2014 (GMT -0600)
Tiehack Aspen Colorado | Change Station
CLOSE
Current Station
Personal Weather Station
Location: Aspen, CO
Elevation: 8500 ft
Nearby Weather Stations

Elev 8500 ft 39.20 °N, 106.85 °W | Updated 25 seconds ago

Overcast
Overcast
44.0 °F
Feels Like 42 °F
N
4.0
Wind Variable Wind from SSW
Gusts 5.0 mph

Today
High -- | Low -- °F
--% Chance of Precip.
Yesterday
High -- | Low -- °F
Precip. -- in
7:24 AM 6:18 PM
Waning Crescent, 1% visible
Pressure 30.07 in
Visibility 10.0 miles
Clouds Overcast 6000 ft
Windchill 42 °F
Dew Point 40 °F
Humidity 86%
Rainfall 0.36 in
Snow Depth 0 in , 0 in , 1 in
UV 1 out of 12
Pollen 1.10 out of 12
Air Quality Not available.
Flu Activity Sporadic
METAR KASE 222153Z 25003KT 10SM OVC060 08/04 A3025 RMK AO2 RAB2059E10 SLP182 P0000 T00830039

More Conditions Fewer Conditions

Pressure 30.07 in
Visibility 10.0 miles
Clouds Overcast 6000 ft
Windchill 42 °F
Dew Point 40 °F
Humidity 86%
Rainfall 0.36 in
Snow Depth 0 in , 0 in , 1 in
UV 1 out of 12
Pollen 1.10 out of 12
Air Quality Not available.
Flu Activity Sporadic
METAR KASE 222153Z 25003KT 10SM OVC060 08/04 A3025 RMK AO2 RAB2059E10 SLP182 P0000 T00830039

More Conditions Fewer Conditions

10-Day Weather Forecast

Almanac

Astronomy

Oct. 22, 2014 Rise Set
Actual Time 7:24 AM MDT 6:18 PM MDT
Civil Twilight 6:57 AM MDT 6:45 PM MDT
Nautical Twilight 6:25 AM MDT 7:17 PM MDT
Astronomical Twilight 5:54 AM MDT 7:48 PM MDT
Moon 6:08 AM MDT 5:46 PM MDT
Length of Visible Light 11h 48m
Length of Day
10h 54m
Tomorrow will be 2m 23s shorter.
Waning Crescent, 1% of the Moon is Illuminated
Today
Waning Crescent
Oct 23
New
Oct 30
First Quarter
Nov 6
Full
Nov 14
Last Quarter

Today's Extremes

State Highs State Lows

Community

WunderPhotos

Upload Photos

1,764,047 photos uploaded!

WunderBlogs® & News

Nearby

Snow Depth

Station Depth Elevation
Independence Pass 0 in 10600 ft
Kiln 0 in 9600 ft
Ivanhoe 1 in 10400 ft
Schofield Pass 0 in 10700 ft
Brumley 0 in 10600 ft

Earthquake Activity

City Distance Mag. Time & Date
No recent earthquake activity has been reported nearby.
Minimum magnitude displayed is 2.5.

Coastal Water Temperatures

Place Temperature
No Stations Reporting

Nearby Weather Stations